sensor_id;sensor_type;location;lat;lon;timestamp;P1;durP1;ratioP1;P2;durP2;ratioP2
15482;SDS011;7843;50.330;7.312;2022-10-31T00:03:42;5.60;;;3.00;;
15482;SDS011;7843;50.330;7.312;2022-10-31T00:06:09;7.68;;;3.90;;
15482;SDS011;7843;50.330;7.312;2022-10-31T00:08:36;4.55;;;3.25;;
15482;SDS011;7843;50.330;7.312;2022-10-31T00:11:03;9.50;;;3.58;;
15482;SDS011;7843;50.330;7.312;2022-10-31T00:13:29;7.80;;;3.55;;
15482;SDS011;7843;50.330;7.312;2022-10-31T00:15:57;8.20;;;3.38;;
15482;SDS011;7843;50.330;7.312;2022-10-31T00:18:24;7.55;;;3.20;;
15482;SDS011;7843;50.330;7.312;2022-10-31T00:20:58;8.95;;;4.03;;
15482;SDS011;7843;50.330;7.312;2022-10-31T00:23:25;6.53;;;3.70;;
15482;SDS011;7843;50.330;7.312;2022-10-31T00:25:52;9.93;;;4.00;;
15482;SDS011;7843;50.330;7.312;2022-10-31T00:28:19;8.25;;;3.92;;
15482;SDS011;7843;50.330;7.312;2022-10-31T00:30:46;8.98;;;3.30;;
15482;SDS011;7843;50.330;7.312;2022-10-31T00:33:12;10.97;;;3.57;;
15482;SDS011;7843;50.330;7.312;2022-10-31T00:35:39;9.00;;;4.05;;
15482;SDS011;7843;50.330;7.312;2022-10-31T00:38:06;6.47;;;3.63;;
15482;SDS011;7843;50.330;7.312;2022-10-31T00:40:32;7.13;;;3.83;;
15482;SDS011;7843;50.330;7.312;2022-10-31T00:42:59;8.00;;;3.42;;
15482;SDS011;7843;50.330;7.312;2022-10-31T00:45:26;7.97;;;3.42;;
15482;SDS011;7843;50.330;7.312;2022-10-31T00:47:52;8.03;;;3.37;;
15482;SDS011;7843;50.330;7.312;2022-10-31T00:50:19;6.95;;;3.70;;
15482;SDS011;7843;50.330;7.312;2022-10-31T00:52:46;6.45;;;3.40;;
15482;SDS011;7843;50.330;7.312;2022-10-31T00:55:13;9.43;;;3.72;;
15482;SDS011;7843;50.330;7.312;2022-10-31T00:57:39;6.13;;;3.40;;
15482;SDS011;7843;50.330;7.312;2022-10-31T01:00:06;5.40;;;3.22;;
15482;SDS011;7843;50.330;7.312;2022-10-31T01:02:34;7.03;;;3.30;;
15482;SDS011;7843;50.330;7.312;2022-10-31T01:05:00;9.75;;;4.40;;
15482;SDS011;7843;50.330;7.312;2022-10-31T01:07:27;9.07;;;3.63;;
15482;SDS011;7843;50.330;7.312;2022-10-31T01:09:54;10.18;;;4.65;;
15482;SDS011;7843;50.330;7.312;2022-10-31T01:12:20;8.60;;;3.88;;
15482;SDS011;7843;50.330;7.312;2022-10-31T01:14:47;5.90;;;3.55;;
15482;SDS011;7843;50.330;7.312;2022-10-31T01:17:14;7.30;;;3.07;;
15482;SDS011;7843;50.330;7.312;2022-10-31T01:19:41;7.22;;;3.70;;
15482;SDS011;7843;50.330;7.312;2022-10-31T01:22:07;8.68;;;3.78;;
15482;SDS011;7843;50.330;7.312;2022-10-31T01:24:34;7.82;;;3.47;;
15482;SDS011;7843;50.330;7.312;2022-10-31T01:27:01;6.57;;;3.75;;
15482;SDS011;7843;50.330;7.312;2022-10-31T01:29:28;9.98;;;4.00;;
15482;SDS011;7843;50.330;7.312;2022-10-31T01:31:55;7.50;;;3.78;;
15482;SDS011;7843;50.330;7.312;2022-10-31T01:34:21;7.03;;;3.50;;
15482;SDS011;7843;50.330;7.312;2022-10-31T01:36:48;6.75;;;3.70;;
15482;SDS011;7843;50.330;7.312;2022-10-31T01:39:17;9.35;;;3.33;;
15482;SDS011;7843;50.330;7.312;2022-10-31T01:41:49;6.22;;;3.45;;
15482;SDS011;7843;50.330;7.312;2022-10-31T01:46:51;12.88;;;3.30;;
15482;SDS011;7843;50.330;7.312;2022-10-31T01:52:00;8.10;;;3.53;;
15482;SDS011;7843;50.330;7.312;2022-10-31T01:54:57;10.68;;;3.55;;
15482;SDS011;7843;50.330;7.312;2022-10-31T01:57:27;7.35;;;3.67;;
15482;SDS011;7843;50.330;7.312;2022-10-31T01:59:57;6.30;;;3.73;;
15482;SDS011;7843;50.330;7.312;2022-10-31T02:02:27;6.67;;;3.20;;
15482;SDS011;7843;50.330;7.312;2022-10-31T02:04:56;10.30;;;3.40;;
15482;SDS011;7843;50.330;7.312;2022-10-31T02:07:31;7.90;;;2.85;;
15482;SDS011;7843;50.330;7.312;2022-10-31T02:10:04;6.72;;;3.28;;
15482;SDS011;7843;50.330;7.312;2022-10-31T02:12:31;10.15;;;3.60;;
15482;SDS011;7843;50.330;7.312;2022-10-31T02:14:59;11.63;;;4.22;;
15482;SDS011;7843;50.330;7.312;2022-10-31T02:17:26;8.03;;;3.23;;
15482;SDS011;7843;50.330;7.312;2022-10-31T02:19:57;7.70;;;3.08;;
15482;SDS011;7843;50.330;7.312;2022-10-31T02:28:31;9.20;;;3.40;;
15482;SDS011;7843;50.330;7.312;2022-10-31T02:33:52;6.13;;;3.00;;
15482;SDS011;7843;50.330;7.312;2022-10-31T02:41:46;5.65;;;3.30;;
15482;SDS011;7843;50.330;7.312;2022-10-31T02:44:22;9.80;;;3.50;;
15482;SDS011;7843;50.330;7.312;2022-10-31T02:47:06;8.27;;;3.53;;
15482;SDS011;7843;50.330;7.312;2022-10-31T02:49:39;6.23;;;3.20;;
15482;SDS011;7843;50.330;7.312;2022-10-31T02:52:31;10.70;;;3.35;;
15482;SDS011;7843;50.330;7.312;2022-10-31T02:57:51;7.47;;;3.63;;
15482;SDS011;7843;50.330;7.312;2022-10-31T03:00:20;10.00;;;3.03;;
15482;SDS011;7843;50.330;7.312;2022-10-31T03:10:52;8.20;;;3.17;;
15482;SDS011;7843;50.330;7.312;2022-10-31T03:15:50;7.80;;;3.38;;
15482;SDS011;7843;50.330;7.312;2022-10-31T03:18:30;6.45;;;3.03;;
15482;SDS011;7843;50.330;7.312;2022-10-31T03:21:11;8.38;;;3.63;;
15482;SDS011;7843;50.330;7.312;2022-10-31T03:23:41;12.07;;;3.88;;
15482;SDS011;7843;50.330;7.312;2022-10-31T03:26:11;6.78;;;3.95;;
15482;SDS011;7843;50.330;7.312;2022-10-31T03:28:48;7.93;;;3.78;;
15482;SDS011;7843;50.330;7.312;2022-10-31T03:31:43;9.73;;;3.50;;
15482;SDS011;7843;50.330;7.312;2022-10-31T03:34:20;11.70;;;4.80;;
15482;SDS011;7843;50.330;7.312;2022-10-31T03:36:48;7.95;;;3.47;;
15482;SDS011;7843;50.330;7.312;2022-10-31T03:39:20;5.95;;;3.05;;
15482;SDS011;7843;50.330;7.312;2022-10-31T03:41:56;6.50;;;3.42;;
15482;SDS011;7843;50.330;7.312;2022-10-31T03:44:34;6.50;;;3.38;;
15482;SDS011;7843;50.330;7.312;2022-10-31T03:47:02;5.85;;;2.90;;
15482;SDS011;7843;50.330;7.312;2022-10-31T03:49:30;8.50;;;3.30;;
15482;SDS011;7843;50.330;7.312;2022-10-31T03:51:59;4.43;;;3.07;;
15482;SDS011;7843;50.330;7.312;2022-10-31T03:54:40;9.23;;;3.28;;
15482;SDS011;7843;50.330;7.312;2022-10-31T03:59:47;9.02;;;3.50;;
15482;SDS011;7843;50.330;7.312;2022-10-31T04:02:29;9.68;;;3.70;;
15482;SDS011;7843;50.330;7.312;2022-10-31T04:04:58;6.72;;;3.05;;
15482;SDS011;7843;50.330;7.312;2022-10-31T04:07:30;8.05;;;3.38;;
15482;SDS011;7843;50.330;7.312;2022-10-31T04:10:01;7.90;;;3.40;;
15482;SDS011;7843;50.330;7.312;2022-10-31T04:12:31;7.63;;;3.42;;
15482;SDS011;7843;50.330;7.312;2022-10-31T04:15:00;9.93;;;3.42;;
15482;SDS011;7843;50.330;7.312;2022-10-31T04:17:31;11.73;;;3.78;;
15482;SDS011;7843;50.330;7.312;2022-10-31T04:20:02;12.57;;;4.07;;
15482;SDS011;7843;50.330;7.312;2022-10-31T04:22:30;6.93;;;3.60;;
15482;SDS011;7843;50.330;7.312;2022-10-31T04:24:56;8.07;;;3.97;;
15482;SDS011;7843;50.330;7.312;2022-10-31T04:27:23;7.00;;;3.58;;
15482;SDS011;7843;50.330;7.312;2022-10-31T04:29:50;8.57;;;3.65;;
15482;SDS011;7843;50.330;7.312;2022-10-31T04:32:16;10.00;;;4.13;;
15482;SDS011;7843;50.330;7.312;2022-10-31T04:34:43;9.70;;;3.65;;
15482;SDS011;7843;50.330;7.312;2022-10-31T04:37:12;8.30;;;3.80;;
15482;SDS011;7843;50.330;7.312;2022-10-31T04:39:39;9.48;;;3.53;;
15482;SDS011;7843;50.330;7.312;2022-10-31T04:42:05;9.10;;;3.75;;
15482;SDS011;7843;50.330;7.312;2022-10-31T04:44:34;8.10;;;3.33;;
15482;SDS011;7843;50.330;7.312;2022-10-31T04:47:01;7.20;;;3.92;;
15482;SDS011;7843;50.330;7.312;2022-10-31T04:49:28;8.67;;;3.63;;
15482;SDS011;7843;50.330;7.312;2022-10-31T04:51:54;8.20;;;4.18;;
15482;SDS011;7843;50.330;7.312;2022-10-31T04:54:21;7.13;;;3.47;;
15482;SDS011;7843;50.330;7.312;2022-10-31T04:56:51;6.30;;;3.70;;
15482;SDS011;7843;50.330;7.312;2022-10-31T04:59:17;9.18;;;3.85;;
15482;SDS011;7843;50.330;7.312;2022-10-31T05:01:44;14.55;;;4.78;;
15482;SDS011;7843;50.330;7.312;2022-10-31T05:04:11;7.30;;;4.37;;
15482;SDS011;7843;50.330;7.312;2022-10-31T05:06:51;5.70;;;3.58;;
15482;SDS011;7843;50.330;7.312;2022-10-31T05:09:24;8.00;;;3.80;;
15482;SDS011;7843;50.330;7.312;2022-10-31T05:11:51;7.70;;;3.40;;
15482;SDS011;7843;50.330;7.312;2022-10-31T05:14:17;10.63;;;3.75;;
15482;SDS011;7843;50.330;7.312;2022-10-31T05:16:49;8.07;;;4.18;;
15482;SDS011;7843;50.330;7.312;2022-10-31T05:19:16;6.97;;;3.17;;
15482;SDS011;7843;50.330;7.312;2022-10-31T05:21:43;9.32;;;3.45;;
15482;SDS011;7843;50.330;7.312;2022-10-31T05:24:09;4.70;;;3.08;;
15482;SDS011;7843;50.330;7.312;2022-10-31T05:26:36;11.02;;;3.78;;
15482;SDS011;7843;50.330;7.312;2022-10-31T05:29:03;8.35;;;3.17;;
15482;SDS011;7843;50.330;7.312;2022-10-31T05:31:29;6.82;;;3.38;;
15482;SDS011;7843;50.330;7.312;2022-10-31T05:33:56;12.15;;;3.60;;
15482;SDS011;7843;50.330;7.312;2022-10-31T05:36:37;7.83;;;3.60;;
15482;SDS011;7843;50.330;7.312;2022-10-31T05:39:03;6.97;;;3.72;;
15482;SDS011;7843;50.330;7.312;2022-10-31T05:41:33;9.38;;;3.65;;
15482;SDS011;7843;50.330;7.312;2022-10-31T05:44:02;8.77;;;3.78;;
15482;SDS011;7843;50.330;7.312;2022-10-31T05:46:28;6.75;;;3.20;;
15482;SDS011;7843;50.330;7.312;2022-10-31T05:48:55;9.35;;;4.00;;
15482;SDS011;7843;50.330;7.312;2022-10-31T05:51:23;8.88;;;3.90;;
15482;SDS011;7843;50.330;7.312;2022-10-31T05:53:50;9.82;;;3.70;;
15482;SDS011;7843;50.330;7.312;2022-10-31T05:56:20;9.57;;;3.83;;
15482;SDS011;7843;50.330;7.312;2022-10-31T05:58:47;6.93;;;3.25;;
15482;SDS011;7843;50.330;7.312;2022-10-31T06:01:13;9.02;;;3.50;;
15482;SDS011;7843;50.330;7.312;2022-10-31T06:03:43;6.15;;;3.55;;
15482;SDS011;7843;50.330;7.312;2022-10-31T06:06:13;6.10;;;3.60;;
15482;SDS011;7843;50.330;7.312;2022-10-31T06:08:42;6.53;;;3.67;;
15482;SDS011;7843;50.330;7.312;2022-10-31T06:11:12;11.35;;;4.28;;
15482;SDS011;7843;50.330;7.312;2022-10-31T06:13:38;10.75;;;3.55;;
15482;SDS011;7843;50.330;7.312;2022-10-31T06:16:05;8.93;;;3.55;;
15482;SDS011;7843;50.330;7.312;2022-10-31T06:18:32;11.70;;;4.13;;
15482;SDS011;7843;50.330;7.312;2022-10-31T06:21:01;9.23;;;4.07;;
15482;SDS011;7843;50.330;7.312;2022-10-31T06:23:30;9.75;;;3.83;;
15482;SDS011;7843;50.330;7.312;2022-10-31T06:25:57;7.95;;;3.45;;
15482;SDS011;7843;50.330;7.312;2022-10-31T06:28:23;6.75;;;3.58;;
15482;SDS011;7843;50.330;7.312;2022-10-31T06:30:50;7.80;;;3.40;;
15482;SDS011;7843;50.330;7.312;2022-10-31T06:33:20;7.03;;;3.97;;
15482;SDS011;7843;50.330;7.312;2022-10-31T06:35:53;6.32;;;3.30;;
15482;SDS011;7843;50.330;7.312;2022-10-31T06:38:23;15.30;;;3.60;;
15482;SDS011;7843;50.330;7.312;2022-10-31T06:40:51;6.25;;;3.47;;
15482;SDS011;7843;50.330;7.312;2022-10-31T06:43:18;11.13;;;3.97;;
15482;SDS011;7843;50.330;7.312;2022-10-31T06:45:48;7.53;;;3.78;;
15482;SDS011;7843;50.330;7.312;2022-10-31T06:48:14;11.98;;;4.30;;
15482;SDS011;7843;50.330;7.312;2022-10-31T06:50:42;7.60;;;3.65;;
15482;SDS011;7843;50.330;7.312;2022-10-31T06:53:11;7.70;;;3.60;;
15482;SDS011;7843;50.330;7.312;2022-10-31T06:55:39;6.63;;;3.80;;
15482;SDS011;7843;50.330;7.312;2022-10-31T06:58:06;7.33;;;4.30;;
15482;SDS011;7843;50.330;7.312;2022-10-31T07:00:36;8.48;;;4.28;;
15482;SDS011;7843;50.330;7.312;2022-10-31T07:03:09;10.98;;;4.43;;
15482;SDS011;7843;50.330;7.312;2022-10-31T07:05:37;7.20;;;4.05;;
15482;SDS011;7843;50.330;7.312;2022-10-31T07:08:05;10.88;;;4.93;;
15482;SDS011;7843;50.330;7.312;2022-10-31T07:10:35;10.93;;;5.03;;
15482;SDS011;7843;50.330;7.312;2022-10-31T07:13:03;13.10;;;4.77;;
15482;SDS011;7843;50.330;7.312;2022-10-31T07:15:35;8.07;;;4.90;;
15482;SDS011;7843;50.330;7.312;2022-10-31T07:18:04;12.55;;;4.43;;
15482;SDS011;7843;50.330;7.312;2022-10-31T07:20:39;10.02;;;4.68;;
15482;SDS011;7843;50.330;7.312;2022-10-31T07:23:06;11.00;;;4.55;;
15482;SDS011;7843;50.330;7.312;2022-10-31T07:25:33;6.60;;;3.92;;
15482;SDS011;7843;50.330;7.312;2022-10-31T07:28:00;10.23;;;4.53;;
15482;SDS011;7843;50.330;7.312;2022-10-31T07:30:27;10.93;;;3.92;;
15482;SDS011;7843;50.330;7.312;2022-10-31T07:33:07;7.75;;;3.75;;
15482;SDS011;7843;50.330;7.312;2022-10-31T07:35:34;8.95;;;3.40;;
15482;SDS011;7843;50.330;7.312;2022-10-31T07:38:08;10.48;;;3.60;;
15482;SDS011;7843;50.330;7.312;2022-10-31T07:40:36;8.80;;;3.85;;
15482;SDS011;7843;50.330;7.312;2022-10-31T07:43:03;6.55;;;3.70;;
15482;SDS011;7843;50.330;7.312;2022-10-31T07:45:29;8.52;;;3.40;;
15482;SDS011;7843;50.330;7.312;2022-10-31T07:47:56;7.47;;;3.42;;
15482;SDS011;7843;50.330;7.312;2022-10-31T07:50:25;7.80;;;3.50;;
15482;SDS011;7843;50.330;7.312;2022-10-31T07:53:06;11.63;;;3.90;;
15482;SDS011;7843;50.330;7.312;2022-10-31T07:55:37;10.60;;;4.18;;
15482;SDS011;7843;50.330;7.312;2022-10-31T07:58:05;11.40;;;4.10;;
15482;SDS011;7843;50.330;7.312;2022-10-31T08:00:42;10.23;;;4.20;;
15482;SDS011;7843;50.330;7.312;2022-10-31T08:03:14;12.02;;;4.28;;
15482;SDS011;7843;50.330;7.312;2022-10-31T08:05:45;8.90;;;3.95;;
15482;SDS011;7843;50.330;7.312;2022-10-31T08:08:12;8.05;;;4.07;;
15482;SDS011;7843;50.330;7.312;2022-10-31T08:10:42;6.70;;;3.85;;
15482;SDS011;7843;50.330;7.312;2022-10-31T08:13:10;9.02;;;3.97;;
15482;SDS011;7843;50.330;7.312;2022-10-31T08:15:38;7.97;;;4.32;;
15482;SDS011;7843;50.330;7.312;2022-10-31T08:18:13;10.55;;;4.35;;
15482;SDS011;7843;50.330;7.312;2022-10-31T08:20:41;8.70;;;3.90;;
15482;SDS011;7843;50.330;7.312;2022-10-31T08:23:09;11.05;;;4.18;;
15482;SDS011;7843;50.330;7.312;2022-10-31T08:25:37;5.93;;;3.42;;
15482;SDS011;7843;50.330;7.312;2022-10-31T08:28:08;10.27;;;4.60;;
15482;SDS011;7843;50.330;7.312;2022-10-31T08:30:36;11.70;;;4.57;;
15482;SDS011;7843;50.330;7.312;2022-10-31T08:35:32;9.88;;;4.10;;
15482;SDS011;7843;50.330;7.312;2022-10-31T08:37:59;7.05;;;3.72;;
15482;SDS011;7843;50.330;7.312;2022-10-31T08:40:27;8.57;;;4.17;;
15482;SDS011;7843;50.330;7.312;2022-10-31T08:43:00;11.82;;;4.60;;
15482;SDS011;7843;50.330;7.312;2022-10-31T08:45:29;10.23;;;4.68;;
15482;SDS011;7843;50.330;7.312;2022-10-31T08:47:59;9.32;;;4.13;;
15482;SDS011;7843;50.330;7.312;2022-10-31T08:50:28;9.50;;;4.55;;
15482;SDS011;7843;50.330;7.312;2022-10-31T08:53:03;8.75;;;5.38;;
15482;SDS011;7843;50.330;7.312;2022-10-31T08:55:35;13.93;;;7.77;;
15482;SDS011;7843;50.330;7.312;2022-10-31T08:58:06;13.57;;;6.80;;
15482;SDS011;7843;50.330;7.312;2022-10-31T09:00:35;10.50;;;5.68;;
15482;SDS011;7843;50.330;7.312;2022-10-31T09:03:06;10.40;;;4.90;;
15482;SDS011;7843;50.330;7.312;2022-10-31T09:05:36;10.43;;;4.65;;
15482;SDS011;7843;50.330;7.312;2022-10-31T09:08:06;9.10;;;5.00;;
15482;SDS011;7843;50.330;7.312;2022-10-31T09:10:37;9.52;;;4.93;;
15482;SDS011;7843;50.330;7.312;2022-10-31T09:13:05;8.20;;;4.65;;
15482;SDS011;7843;50.330;7.312;2022-10-31T09:15:35;12.13;;;5.07;;
15482;SDS011;7843;50.330;7.312;2022-10-31T09:18:04;9.57;;;4.25;;
15482;SDS011;7843;50.330;7.312;2022-10-31T09:20:32;12.88;;;5.25;;
15482;SDS011;7843;50.330;7.312;2022-10-31T09:23:04;8.45;;;4.22;;
15482;SDS011;7843;50.330;7.312;2022-10-31T09:25:32;12.83;;;4.87;;
15482;SDS011;7843;50.330;7.312;2022-10-31T09:28:03;7.13;;;4.07;;
15482;SDS011;7843;50.330;7.312;2022-10-31T09:30:34;8.05;;;4.30;;
15482;SDS011;7843;50.330;7.312;2022-10-31T09:33:05;12.23;;;4.60;;
15482;SDS011;7843;50.330;7.312;2022-10-31T09:35:33;10.02;;;4.82;;
15482;SDS011;7843;50.330;7.312;2022-10-31T09:38:04;10.05;;;4.53;;
15482;SDS011;7843;50.330;7.312;2022-10-31T09:40:39;9.00;;;4.10;;
15482;SDS011;7843;50.330;7.312;2022-10-31T09:43:22;8.82;;;4.43;;
15482;SDS011;7843;50.330;7.312;2022-10-31T09:49:36;7.80;;;4.30;;
15482;SDS011;7843;50.330;7.312;2022-10-31T09:52:32;12.33;;;4.20;;
15482;SDS011;7843;50.330;7.312;2022-10-31T09:55:15;8.65;;;4.10;;
15482;SDS011;7843;50.330;7.312;2022-10-31T09:57:47;7.68;;;4.20;;
15482;SDS011;7843;50.330;7.312;2022-10-31T10:00:18;8.63;;;4.05;;
15482;SDS011;7843;50.330;7.312;2022-10-31T10:02:47;6.95;;;3.65;;
15482;SDS011;7843;50.330;7.312;2022-10-31T10:05:24;6.90;;;3.55;;
15482;SDS011;7843;50.330;7.312;2022-10-31T10:08:18;7.53;;;3.55;;
15482;SDS011;7843;50.330;7.312;2022-10-31T10:16:27;7.35;;;4.28;;
15482;SDS011;7843;50.330;7.312;2022-10-31T10:19:23;7.22;;;3.90;;
15482;SDS011;7843;50.330;7.312;2022-10-31T10:24:59;9.52;;;4.40;;
15482;SDS011;7843;50.330;7.312;2022-10-31T10:30:59;8.52;;;4.35;;
15482;SDS011;7843;50.330;7.312;2022-10-31T10:36:32;6.88;;;4.88;;
15482;SDS011;7843;50.330;7.312;2022-10-31T10:42:13;10.90;;;4.82;;
15482;SDS011;7843;50.330;7.312;2022-10-31T10:45:13;7.45;;;4.38;;
15482;SDS011;7843;50.330;7.312;2022-10-31T10:48:27;8.10;;;4.30;;
15482;SDS011;7843;50.330;7.312;2022-10-31T10:51:12;10.15;;;4.72;;
15482;SDS011;7843;50.330;7.312;2022-10-31T10:59:33;8.93;;;4.90;;
15482;SDS011;7843;50.330;7.312;2022-10-31T11:02:03;9.10;;;4.47;;
15482;SDS011;7843;50.330;7.312;2022-10-31T11:04:42;8.75;;;4.20;;
15482;SDS011;7843;50.330;7.312;2022-10-31T11:07:11;9.57;;;4.57;;
15482;SDS011;7843;50.330;7.312;2022-10-31T11:09:37;6.33;;;4.43;;
15482;SDS011;7843;50.330;7.312;2022-10-31T11:12:29;9.57;;;4.78;;
15482;SDS011;7843;50.330;7.312;2022-10-31T11:15:03;8.13;;;4.43;;
15482;SDS011;7843;50.330;7.312;2022-10-31T11:17:37;9.55;;;4.32;;
15482;SDS011;7843;50.330;7.312;2022-10-31T11:20:24;7.35;;;4.13;;
15482;SDS011;7843;50.330;7.312;2022-10-31T11:28:23;15.05;;;4.45;;
15482;SDS011;7843;50.330;7.312;2022-10-31T11:31:01;10.00;;;4.20;;
15482;SDS011;7843;50.330;7.312;2022-10-31T11:33:38;7.47;;;4.22;;
15482;SDS011;7843;50.330;7.312;2022-10-31T11:36:24;6.93;;;4.25;;
15482;SDS011;7843;50.330;7.312;2022-10-31T11:39:04;8.77;;;4.00;;
15482;SDS011;7843;50.330;7.312;2022-10-31T11:41:33;9.07;;;4.50;;
15482;SDS011;7843;50.330;7.312;2022-10-31T11:44:10;12.77;;;4.70;;
15482;SDS011;7843;50.330;7.312;2022-10-31T11:46:47;10.60;;;4.22;;
15482;SDS011;7843;50.330;7.312;2022-10-31T11:49:29;11.88;;;4.63;;
15482;SDS011;7843;50.330;7.312;2022-10-31T11:52:07;7.28;;;3.92;;
15482;SDS011;7843;50.330;7.312;2022-10-31T11:57:24;12.93;;;4.70;;
15482;SDS011;7843;50.330;7.312;2022-10-31T11:59:56;5.55;;;3.88;;
15482;SDS011;7843;50.330;7.312;2022-10-31T12:02:25;11.57;;;4.30;;
15482;SDS011;7843;50.330;7.312;2022-10-31T12:05:38;10.23;;;4.35;;
15482;SDS011;7843;50.330;7.312;2022-10-31T12:07:46;9.05;;;3.70;;
15482;SDS011;7843;50.330;7.312;2022-10-31T12:10:13;8.40;;;4.30;;
15482;SDS011;7843;50.330;7.312;2022-10-31T12:12:49;15.07;;;4.82;;
15482;SDS011;7843;50.330;7.312;2022-10-31T12:15:38;8.13;;;3.63;;
15482;SDS011;7843;50.330;7.312;2022-10-31T12:18:17;9.07;;;3.67;;
15482;SDS011;7843;50.330;7.312;2022-10-31T12:20:52;6.43;;;3.45;;
15482;SDS011;7843;50.330;7.312;2022-10-31T12:32:09;7.85;;;3.83;;
15482;SDS011;7843;50.330;7.312;2022-10-31T12:35:08;6.90;;;3.60;;
15482;SDS011;7843;50.330;7.312;2022-10-31T12:43:42;8.05;;;4.40;;
15482;SDS011;7843;50.330;7.312;2022-10-31T12:46:16;10.75;;;4.82;;
15482;SDS011;7843;50.330;7.312;2022-10-31T12:49:12;9.23;;;5.00;;
15482;SDS011;7843;50.330;7.312;2022-10-31T12:54:25;8.52;;;4.80;;
15482;SDS011;7843;50.330;7.312;2022-10-31T12:57:21;11.50;;;5.32;;
15482;SDS011;7843;50.330;7.312;2022-10-31T13:00:12;11.40;;;5.00;;
15482;SDS011;7843;50.330;7.312;2022-10-31T13:03:03;6.77;;;4.17;;
15482;SDS011;7843;50.330;7.312;2022-10-31T13:05:48;11.18;;;4.78;;
15482;SDS011;7843;50.330;7.312;2022-10-31T13:08:36;6.65;;;4.03;;
15482;SDS011;7843;50.330;7.312;2022-10-31T13:13:55;7.82;;;4.60;;
15482;SDS011;7843;50.330;7.312;2022-10-31T13:16:46;9.85;;;4.32;;
15482;SDS011;7843;50.330;7.312;2022-10-31T13:19:18;10.88;;;4.00;;
15482;SDS011;7843;50.330;7.312;2022-10-31T13:21:51;7.97;;;4.25;;
15482;SDS011;7843;50.330;7.312;2022-10-31T13:24:36;10.07;;;4.18;;
15482;SDS011;7843;50.330;7.312;2022-10-31T13:27:17;8.45;;;4.40;;
15482;SDS011;7843;50.330;7.312;2022-10-31T13:30:17;8.38;;;4.32;;
15482;SDS011;7843;50.330;7.312;2022-10-31T13:32:58;7.85;;;4.65;;
15482;SDS011;7843;50.330;7.312;2022-10-31T13:38:33;9.30;;;3.95;;
15482;SDS011;7843;50.330;7.312;2022-10-31T13:44:13;10.48;;;4.55;;
15482;SDS011;7843;50.330;7.312;2022-10-31T13:46:49;11.00;;;4.20;;
15482;SDS011;7843;50.330;7.312;2022-10-31T13:49:24;8.82;;;4.22;;
15482;SDS011;7843;50.330;7.312;2022-10-31T13:51:51;8.18;;;4.45;;
15482;SDS011;7843;50.330;7.312;2022-10-31T13:54:20;8.45;;;4.22;;
15482;SDS011;7843;50.330;7.312;2022-10-31T13:56:52;7.73;;;4.20;;
15482;SDS011;7843;50.330;7.312;2022-10-31T13:59:26;7.85;;;3.35;;
15482;SDS011;7843;50.330;7.312;2022-10-31T14:01:55;8.15;;;3.78;;
15482;SDS011;7843;50.330;7.312;2022-10-31T14:04:38;7.03;;;3.53;;
15482;SDS011;7843;50.330;7.312;2022-10-31T14:07:25;9.93;;;3.88;;
15482;SDS011;7843;50.330;7.312;2022-10-31T14:12:45;9.05;;;3.67;;
15482;SDS011;7843;50.330;7.312;2022-10-31T14:15:17;9.57;;;4.10;;
15482;SDS011;7843;50.330;7.312;2022-10-31T14:17:48;5.78;;;3.28;;
15482;SDS011;7843;50.330;7.312;2022-10-31T14:22:48;6.70;;;3.70;;
15482;SDS011;7843;50.330;7.312;2022-10-31T14:27:51;8.25;;;3.55;;
15482;SDS011;7843;50.330;7.312;2022-10-31T14:30:22;5.80;;;3.60;;
15482;SDS011;7843;50.330;7.312;2022-10-31T14:32:52;8.07;;;3.85;;
15482;SDS011;7843;50.330;7.312;2022-10-31T14:38:42;9.18;;;3.65;;
15482;SDS011;7843;50.330;7.312;2022-10-31T14:47:04;9.63;;;3.90;;
15482;SDS011;7843;50.330;7.312;2022-10-31T14:49:50;10.77;;;3.83;;
15482;SDS011;7843;50.330;7.312;2022-10-31T14:52:31;7.95;;;3.42;;
15482;SDS011;7843;50.330;7.312;2022-10-31T14:55:01;9.53;;;3.97;;
15482;SDS011;7843;50.330;7.312;2022-10-31T14:57:34;10.77;;;3.58;;
15482;SDS011;7843;50.330;7.312;2022-10-31T15:00:05;11.25;;;4.03;;
15482;SDS011;7843;50.330;7.312;2022-10-31T15:02:39;8.73;;;3.85;;
15482;SDS011;7843;50.330;7.312;2022-10-31T15:05:25;10.25;;;3.75;;
15482;SDS011;7843;50.330;7.312;2022-10-31T15:07:53;9.30;;;4.45;;
15482;SDS011;7843;50.330;7.312;2022-10-31T15:10:26;10.73;;;4.32;;
15482;SDS011;7843;50.330;7.312;2022-10-31T15:13:09;7.63;;;3.83;;
15482;SDS011;7843;50.330;7.312;2022-10-31T15:15:37;10.02;;;4.20;;
15482;SDS011;7843;50.330;7.312;2022-10-31T15:18:04;10.10;;;5.03;;
15482;SDS011;7843;50.330;7.312;2022-10-31T15:20:33;11.23;;;4.68;;
15482;SDS011;7843;50.330;7.312;2022-10-31T15:23:16;9.43;;;4.60;;
15482;SDS011;7843;50.330;7.312;2022-10-31T15:26:04;14.02;;;4.80;;
15482;SDS011;7843;50.330;7.312;2022-10-31T15:28:31;8.68;;;4.50;;
15482;SDS011;7843;50.330;7.312;2022-10-31T15:30:59;9.20;;;4.18;;
15482;SDS011;7843;50.330;7.312;2022-10-31T15:33:31;11.70;;;4.40;;
15482;SDS011;7843;50.330;7.312;2022-10-31T15:36:20;9.30;;;4.25;;
15482;SDS011;7843;50.330;7.312;2022-10-31T15:38:49;8.47;;;4.63;;
15482;SDS011;7843;50.330;7.312;2022-10-31T15:41:24;5.60;;;3.78;;
15482;SDS011;7843;50.330;7.312;2022-10-31T15:43:57;8.57;;;4.70;;
15482;SDS011;7843;50.330;7.312;2022-10-31T15:46:37;12.53;;;4.83;;
15482;SDS011;7843;50.330;7.312;2022-10-31T15:49:10;10.93;;;4.43;;
15482;SDS011;7843;50.330;7.312;2022-10-31T15:51:45;10.43;;;4.70;;
15482;SDS011;7843;50.330;7.312;2022-10-31T15:54:14;12.73;;;4.60;;
15482;SDS011;7843;50.330;7.312;2022-10-31T15:56:42;12.25;;;5.18;;
15482;SDS011;7843;50.330;7.312;2022-10-31T15:59:22;10.20;;;4.30;;
15482;SDS011;7843;50.330;7.312;2022-10-31T16:02:03;13.00;;;4.37;;
15482;SDS011;7843;50.330;7.312;2022-10-31T16:07:29;10.25;;;4.43;;
15482;SDS011;7843;50.330;7.312;2022-10-31T16:10:03;12.33;;;4.70;;
15482;SDS011;7843;50.330;7.312;2022-10-31T16:12:51;10.20;;;4.68;;
15482;SDS011;7843;50.330;7.312;2022-10-31T16:15:18;10.70;;;4.38;;
15482;SDS011;7843;50.330;7.312;2022-10-31T16:17:47;10.60;;;4.85;;
15482;SDS011;7843;50.330;7.312;2022-10-31T16:20:23;13.95;;;5.07;;
15482;SDS011;7843;50.330;7.312;2022-10-31T16:22:53;10.75;;;5.07;;
15482;SDS011;7843;50.330;7.312;2022-10-31T16:25:35;11.13;;;4.50;;
15482;SDS011;7843;50.330;7.312;2022-10-31T16:28:16;10.15;;;4.72;;
15482;SDS011;7843;50.330;7.312;2022-10-31T16:30:49;9.55;;;4.32;;
15482;SDS011;7843;50.330;7.312;2022-10-31T16:39:01;11.65;;;5.40;;
15482;SDS011;7843;50.330;7.312;2022-10-31T16:41:30;12.63;;;4.75;;
15482;SDS011;7843;50.330;7.312;2022-10-31T16:44:04;10.13;;;4.80;;
15482;SDS011;7843;50.330;7.312;2022-10-31T16:46:40;9.82;;;4.93;;
15482;SDS011;7843;50.330;7.312;2022-10-31T16:49:08;12.15;;;5.03;;
15482;SDS011;7843;50.330;7.312;2022-10-31T16:51:35;8.05;;;4.60;;
15482;SDS011;7843;50.330;7.312;2022-10-31T16:54:02;9.38;;;5.28;;
15482;SDS011;7843;50.330;7.312;2022-10-31T16:56:30;8.10;;;4.30;;
15482;SDS011;7843;50.330;7.312;2022-10-31T16:58:58;14.27;;;5.40;;
15482;SDS011;7843;50.330;7.312;2022-10-31T17:01:28;11.45;;;4.50;;
15482;SDS011;7843;50.330;7.312;2022-10-31T17:03:55;13.85;;;5.28;;
15482;SDS011;7843;50.330;7.312;2022-10-31T17:06:21;11.18;;;5.35;;
15482;SDS011;7843;50.330;7.312;2022-10-31T17:08:53;14.60;;;5.13;;
15482;SDS011;7843;50.330;7.312;2022-10-31T17:11:23;9.97;;;5.30;;
15482;SDS011;7843;50.330;7.312;2022-10-31T17:13:52;12.65;;;4.85;;
15482;SDS011;7843;50.330;7.312;2022-10-31T17:16:20;11.80;;;5.15;;
15482;SDS011;7843;50.330;7.312;2022-10-31T17:18:46;10.23;;;5.47;;
15482;SDS011;7843;50.330;7.312;2022-10-31T17:21:19;10.18;;;5.72;;
15482;SDS011;7843;50.330;7.312;2022-10-31T17:23:48;14.25;;;6.40;;
15482;SDS011;7843;50.330;7.312;2022-10-31T17:26:16;10.63;;;5.45;;
15482;SDS011;7843;50.330;7.312;2022-10-31T17:28:43;12.55;;;6.35;;
15482;SDS011;7843;50.330;7.312;2022-10-31T17:31:19;10.55;;;5.68;;
15482;SDS011;7843;50.330;7.312;2022-10-31T17:33:53;13.30;;;5.80;;
15482;SDS011;7843;50.330;7.312;2022-10-31T17:36:23;14.65;;;7.03;;